createdAt,value
2017-06-09T00:00:15.372Z,16.20
2017-06-09T00:02:44.291Z,16.30
2017-06-09T00:05:13.431Z,16.40
2017-06-09T00:07:42.364Z,16.40
2017-06-09T00:10:11.364Z,16.40
2017-06-09T00:12:40.251Z,16.40
2017-06-09T00:15:10.789Z,16.40
2017-06-09T00:17:39.652Z,16.40
2017-06-09T00:20:11.514Z,16.40
2017-06-09T00:22:40.456Z,16.50
2017-06-09T00:25:10.037Z,16.60
2017-06-09T00:27:39.009Z,16.70
2017-06-09T00:30:08.302Z,16.70
2017-06-09T00:32:37.280Z,16.70
2017-06-09T00:35:10.226Z,16.70
2017-06-09T00:37:39.109Z,16.70
2017-06-09T00:40:08.452Z,16.80
2017-06-09T00:42:37.383Z,17.00
2017-06-09T00:45:10.882Z,17.00
2017-06-09T00:47:39.720Z,17.00
2017-06-09T00:50:13.958Z,17.00
2017-06-09T00:52:42.875Z,16.90
2017-06-09T00:55:13.082Z,16.80
2017-06-09T00:57:41.992Z,16.70
2017-06-09T01:00:19.549Z,16.70
2017-06-09T01:02:48.497Z,16.70
2017-06-09T01:05:17.671Z,16.60
2017-06-09T01:07:46.573Z,16.50
2017-06-09T01:10:18.007Z,16.50
2017-06-09T01:12:46.960Z,16.60
2017-06-09T01:15:17.129Z,16.70
2017-06-09T01:17:45.979Z,16.70
2017-06-09T01:20:15.639Z,16.80
2017-06-09T01:22:44.520Z,16.70
2017-06-09T01:25:13.509Z,16.50
2017-06-09T01:28:45.015Z,16.50
2017-06-09T01:31:13.950Z,16.40
2017-06-09T01:33:42.835Z,16.50
2017-06-09T01:36:11.748Z,16.40
2017-06-09T01:38:40.630Z,16.40
2017-06-09T01:41:09.546Z,16.40
2017-06-09T01:43:38.526Z,16.40
2017-06-09T01:47:26.947Z,16.40
2017-06-09T01:52:33.968Z,16.40
2017-06-09T01:55:04.049Z,16.40
2017-06-09T01:57:33.118Z,16.40
2017-06-09T02:00:02.138Z,16.30
2017-06-09T02:02:31.016Z,16.40
2017-06-09T02:04:59.869Z,16.40
2017-06-09T02:07:28.793Z,16.30
2017-06-09T02:09:57.725Z,16.20
2017-06-09T02:12:27.697Z,16.20
2017-06-09T02:14:56.572Z,16.10
2017-06-09T02:17:25.767Z,16.10
2017-06-09T02:19:54.689Z,16.10
2017-06-09T02:22:23.592Z,16.10
2017-06-09T02:24:52.446Z,16.00
2017-06-09T02:27:21.294Z,16.00
2017-06-09T02:29:50.171Z,16.00
2017-06-09T02:32:19.291Z,16.00
2017-06-09T02:34:48.193Z,15.90
2017-06-09T02:37:17.126Z,16.00
2017-06-09T02:39:46.530Z,16.00
2017-06-09T02:42:15.421Z,16.00
2017-06-09T02:44:44.285Z,16.00
2017-06-09T02:47:13.415Z,16.10
2017-06-09T02:49:42.260Z,16.10
2017-06-09T02:52:11.181Z,16.10
2017-06-09T02:54:40.354Z,16.00
2017-06-09T02:57:09.238Z,16.00
2017-06-09T02:59:38.116Z,15.90
2017-06-09T03:02:07.058Z,15.80
2017-06-09T03:04:35.901Z,15.60
2017-06-09T03:07:05.549Z,15.10
2017-06-09T03:09:34.395Z,14.50
2017-06-09T03:12:03.340Z,14.10
2017-06-09T03:14:32.302Z,14.00
2017-06-09T03:17:06.124Z,13.80
2017-06-09T03:19:34.985Z,13.70
2017-06-09T03:22:03.897Z,13.50
2017-06-09T03:24:32.788Z,13.50
2017-06-09T03:27:01.758Z,13.30
2017-06-09T03:29:30.655Z,13.30
2017-06-09T03:32:03.943Z,13.30
2017-06-09T03:34:32.865Z,13.30
2017-06-09T03:37:01.725Z,13.10
2017-06-09T03:39:30.610Z,13.10
2017-06-09T03:41:59.464Z,13.10
2017-06-09T03:44:29.274Z,13.10
2017-06-09T03:46:58.155Z,13.00
2017-06-09T03:49:27.148Z,13.00
2017-06-09T03:51:56.005Z,13.10
2017-06-09T03:54:24.957Z,13.20
2017-06-09T03:56:53.844Z,13.40
2017-06-09T03:59:22.706Z,13.80
2017-06-09T04:01:51.548Z,14.20
2017-06-09T04:04:21.193Z,14.30
2017-06-09T04:06:50.042Z,14.40
2017-06-09T04:09:18.973Z,14.50
2017-06-09T04:11:48.166Z,14.50
2017-06-09T04:14:17.202Z,14.50
2017-06-09T04:16:46.175Z,14.20
2017-06-09T04:19:15.204Z,14.10
2017-06-09T04:21:44.102Z,14.00
2017-06-09T04:24:13.056Z,14.00
2017-06-09T04:26:42.149Z,14.10
2017-06-09T04:29:11.092Z,14.20
2017-06-09T04:31:40.043Z,14.20
2017-06-09T04:34:09.737Z,14.50
2017-06-09T04:36:38.613Z,14.70
2017-06-09T04:39:07.558Z,15.00
2017-06-09T04:41:36.474Z,15.20
2017-06-09T04:44:05.929Z,15.40
2017-06-09T04:46:34.808Z,15.50
2017-06-09T04:49:04.500Z,15.50
2017-06-09T04:51:33.405Z,15.80
2017-06-09T04:54:02.314Z,16.40
2017-06-09T04:56:31.289Z,17.10
2017-06-09T04:59:00.274Z,17.80
2017-06-09T05:01:29.644Z,18.90
2017-06-09T05:03:58.550Z,19.50
2017-06-09T05:06:27.581Z,19.20
2017-06-09T05:08:56.485Z,18.70
2017-06-09T05:11:27.943Z,18.10
2017-06-09T05:13:57.828Z,17.70
2017-06-09T05:16:30.119Z,17.40
2017-06-09T05:18:59.079Z,17.40
2017-06-09T05:21:28.330Z,17.30
2017-06-09T05:23:57.442Z,17.60
2017-06-09T05:26:28.261Z,17.70
2017-06-09T05:28:57.434Z,18.20
2017-06-09T05:31:31.436Z,18.40
2017-06-09T05:34:00.501Z,18.50
2017-06-09T05:36:29.611Z,18.90
2017-06-09T05:38:58.588Z,19.80
2017-06-09T05:41:27.501Z,20.40
2017-06-09T05:43:56.517Z,21.00
2017-06-09T05:46:25.534Z,21.20
2017-06-09T05:48:54.455Z,21.80
2017-06-09T05:51:24.779Z,22.40
2017-06-09T05:53:53.754Z,21.70
2017-06-09T05:56:23.125Z,21.20
2017-06-09T05:58:52.320Z,21.10
2017-06-09T06:01:22.246Z,21.50
2017-06-09T06:03:51.215Z,22.30
2017-06-09T06:06:20.461Z,22.40
2017-06-09T06:08:49.540Z,23.10
2017-06-09T06:11:19.489Z,22.90
2017-06-09T06:13:48.652Z,23.30
2017-06-09T06:16:17.586Z,23.40
2017-06-09T06:18:46.526Z,22.00
2017-06-09T06:21:15.599Z,22.20
2017-06-09T06:23:45.209Z,22.30
2017-06-09T06:26:14.245Z,22.60
2017-06-09T06:28:44.067Z,23.50
2017-06-09T06:31:13.759Z,24.50
2017-06-09T06:33:43.389Z,24.50
2017-06-09T06:36:12.514Z,23.80
2017-06-09T06:38:41.475Z,23.60
2017-06-09T06:41:10.608Z,23.30
2017-06-09T06:43:39.749Z,23.90
2017-06-09T06:46:10.511Z,23.60
2017-06-09T06:48:40.143Z,22.70
2017-06-09T06:51:09.133Z,22.40
2017-06-09T06:53:38.765Z,21.90
2017-06-09T06:56:12.151Z,21.60
2017-06-09T06:58:41.438Z,22.00
2017-06-09T07:01:14.134Z,23.00
2017-06-09T07:03:43.341Z,23.50
2017-06-09T07:06:12.693Z,24.60
2017-06-09T07:08:42.604Z,25.20
2017-06-09T07:11:11.681Z,25.50
2017-06-09T07:13:41.726Z,26.20
2017-06-09T07:16:11.552Z,26.40
2017-06-09T07:18:47.376Z,26.20
2017-06-09T07:21:32.625Z,26.70
2017-06-09T07:24:01.524Z,26.90
2017-06-09T07:26:30.644Z,26.50
2017-06-09T07:29:10.351Z,27.00
2017-06-09T07:31:41.304Z,27.10
2017-06-09T07:34:12.315Z,26.50
2017-06-09T07:36:44.972Z,26.00
2017-06-09T07:39:15.666Z,25.70
2017-06-09T07:41:44.930Z,26.20
2017-06-09T07:44:13.882Z,26.40
2017-06-09T07:46:43.895Z,26.70
2017-06-09T07:49:13.025Z,26.10
2017-06-09T07:51:42.710Z,26.70
2017-06-09T07:54:13.583Z,26.00
2017-06-09T07:56:43.735Z,25.20
2017-06-09T07:59:14.808Z,25.30
2017-06-09T08:01:47.435Z,25.40
2017-06-09T08:04:18.086Z,25.60
2017-06-09T08:06:47.751Z,25.70
2017-06-09T08:09:16.738Z,25.40
2017-06-09T08:11:47.037Z,25.10
2017-06-09T08:14:17.122Z,24.70
2017-06-09T08:16:47.094Z,24.60
2017-06-09T08:19:17.926Z,24.50
2017-06-09T08:21:48.835Z,24.30
2017-06-09T08:24:19.155Z,23.90
2017-06-09T08:26:50.002Z,23.70
2017-06-09T08:29:19.433Z,23.60
2017-06-09T08:31:49.729Z,23.80
2017-06-09T08:34:19.029Z,23.60
2017-06-09T08:36:51.398Z,23.60
2017-06-09T08:39:23.738Z,23.80
2017-06-09T08:41:52.730Z,23.90
2017-06-09T08:44:21.856Z,23.60
2017-06-09T08:46:51.656Z,23.80
2017-06-09T08:49:20.676Z,23.80
2017-06-09T08:51:49.701Z,24.30
2017-06-09T08:54:19.194Z,24.60
2017-06-09T08:56:52.868Z,24.30
2017-06-09T08:59:22.322Z,24.30
2017-06-09T09:01:52.388Z,24.40
2017-06-09T09:04:22.713Z,24.60
2017-06-09T09:06:55.089Z,24.70
2017-06-09T09:09:26.285Z,24.60
2017-06-09T09:11:56.134Z,24.00
2017-06-09T09:14:26.469Z,23.80
2017-06-09T09:16:55.653Z,24.70
2017-06-09T09:19:27.163Z,24.60
2017-06-09T09:22:00.620Z,24.80
2017-06-09T09:24:31.197Z,25.20
2017-06-09T09:27:09.764Z,24.70
2017-06-09T09:29:41.764Z,24.80
2017-06-09T09:32:16.876Z,25.20
2017-06-09T09:34:51.533Z,25.00
2017-06-09T09:37:24.564Z,24.40
2017-06-09T09:39:53.952Z,23.90
2017-06-09T09:42:23.966Z,23.20
2017-06-09T09:44:54.114Z,23.00
2017-06-09T09:47:25.761Z,23.00
2017-06-09T09:49:55.739Z,23.20
2017-06-09T09:52:24.963Z,23.30
2017-06-09T09:54:55.496Z,23.50
2017-06-09T09:57:33.272Z,23.50
2017-06-09T10:03:08.756Z,23.60
2017-06-09T10:05:47.270Z,23.90
2017-06-09T10:08:18.746Z,24.10
2017-06-09T10:10:48.886Z,24.00
2017-06-09T10:13:19.340Z,24.30
2017-06-09T10:15:49.377Z,24.70
2017-06-09T10:18:18.474Z,24.70
2017-06-09T10:20:50.401Z,24.80
2017-06-09T10:23:22.362Z,24.80
2017-06-09T10:25:52.459Z,24.60
2017-06-09T10:28:21.609Z,24.60
2017-06-09T10:30:56.043Z,24.50
2017-06-09T10:33:25.161Z,24.30
2017-06-09T10:35:57.450Z,23.90
2017-06-09T10:38:27.244Z,23.80
2017-06-09T10:40:58.054Z,23.50
2017-06-09T10:43:27.984Z,23.40
2017-06-09T10:45:57.696Z,23.30
2017-06-09T10:48:27.971Z,23.20
2017-06-09T10:50:57.942Z,23.20
2017-06-09T10:53:28.534Z,23.10
2017-06-09T10:55:58.391Z,23.30
2017-06-09T10:58:27.613Z,23.70
2017-06-09T11:01:21.428Z,23.90
2017-06-09T11:03:52.824Z,24.00
2017-06-09T11:06:26.249Z,23.90
2017-06-09T11:08:56.798Z,24.00
2017-06-09T11:11:26.562Z,24.00
2017-06-09T11:14:01.068Z,24.00
2017-06-09T11:16:32.328Z,24.20
2017-06-09T11:19:07.927Z,24.10
2017-06-09T11:21:38.221Z,24.10
2017-06-09T11:24:14.549Z,23.70
2017-06-09T11:26:47.066Z,23.80
2017-06-09T11:29:26.873Z,23.80
2017-06-09T11:31:57.841Z,23.80
2017-06-09T11:34:28.768Z,23.70
2017-06-09T11:37:00.566Z,23.60
2017-06-09T11:39:31.020Z,23.50
2017-06-09T11:42:01.727Z,23.50
2017-06-09T11:44:31.930Z,23.30
2017-06-09T11:47:01.030Z,23.20
2017-06-09T11:49:34.049Z,23.00
2017-06-09T11:52:06.370Z,22.90
2017-06-09T11:54:41.144Z,22.70
2017-06-09T11:57:13.165Z,22.60
2017-06-09T11:59:43.226Z,22.40
2017-06-09T12:02:14.493Z,22.30
2017-06-09T12:04:45.750Z,22.30
2017-06-09T12:07:16.554Z,22.30
2017-06-09T12:09:46.523Z,22.40
2017-06-09T12:12:16.474Z,22.60
2017-06-09T12:14:47.659Z,22.80
2017-06-09T12:17:21.426Z,22.50
2017-06-09T12:19:50.814Z,22.40
2017-06-09T12:22:25.177Z,22.30
2017-06-09T12:24:56.364Z,22.00
2017-06-09T12:27:32.083Z,22.00
2017-06-09T12:32:46.983Z,21.90
2017-06-09T12:35:20.378Z,21.60
2017-06-09T12:38:00.731Z,21.30
2017-06-09T12:40:35.119Z,21.20
2017-06-09T12:43:09.544Z,21.00
2017-06-09T12:45:43.314Z,21.00
2017-06-09T12:48:14.823Z,21.00
2017-06-09T12:50:45.845Z,21.10
2017-06-09T12:53:22.840Z,21.20
2017-06-09T12:56:00.206Z,21.40
2017-06-09T12:58:33.558Z,21.40
2017-06-09T13:01:14.792Z,21.30
2017-06-09T13:03:50.322Z,21.10
2017-06-09T13:06:20.876Z,20.40
2017-06-09T13:08:59.333Z,19.80
2017-06-09T13:11:29.040Z,19.40
2017-06-09T13:14:01.994Z,19.10
2017-06-09T13:16:31.816Z,18.80
2017-06-09T13:19:18.536Z,18.60
2017-06-09T13:21:48.012Z,18.50
2017-06-09T13:24:23.677Z,18.40
2017-06-09T13:27:14.582Z,18.20
2017-06-09T13:29:49.640Z,18.20
2017-06-09T13:32:25.035Z,18.10
2017-06-09T13:34:57.331Z,18.10
2017-06-09T13:37:34.253Z,18.10
2017-06-09T13:42:51.655Z,18.10
2017-06-09T13:45:23.604Z,18.00
2017-06-09T13:47:57.612Z,17.90
2017-06-09T13:50:36.214Z,17.60
2017-06-09T13:53:12.094Z,17.50
2017-06-09T13:55:45.893Z,17.40
2017-06-09T13:58:20.245Z,17.50
2017-06-09T14:00:49.508Z,17.50
2017-06-09T14:03:28.959Z,17.60
2017-06-09T14:06:00.179Z,17.70
2017-06-09T14:08:37.065Z,17.80
2017-06-09T14:11:14.352Z,17.90
2017-06-09T14:13:44.514Z,17.90
2017-06-09T14:16:15.386Z,17.90
2017-06-09T14:18:46.231Z,17.90
2017-06-09T14:21:18.147Z,18.10
2017-06-09T14:23:51.447Z,18.20
2017-06-09T14:26:26.244Z,18.40
2017-06-09T14:28:56.717Z,18.70
2017-06-09T14:31:28.183Z,18.80
2017-06-09T14:33:59.100Z,19.00
2017-06-09T14:36:29.069Z,19.00
2017-06-09T14:38:58.231Z,19.10
2017-06-09T14:41:29.757Z,19.20
2017-06-09T14:44:00.287Z,19.30
2017-06-09T14:46:35.205Z,19.30
2017-06-09T14:49:12.259Z,19.10
2017-06-09T14:51:48.417Z,18.90
2017-06-09T14:54:40.378Z,19.00
2017-06-09T15:02:50.343Z,19.00
2017-06-09T15:06:12.164Z,19.00
2017-06-09T15:08:43.065Z,18.90
2017-06-09T15:11:14.742Z,18.80
2017-06-09T15:13:46.205Z,18.80
2017-06-09T15:16:33.677Z,18.80
2017-06-09T15:19:10.885Z,18.90
2017-06-09T15:21:42.274Z,19.10
2017-06-09T15:24:15.028Z,19.00
2017-06-09T15:26:44.489Z,19.10
2017-06-09T15:29:15.430Z,19.20
2017-06-09T15:31:47.788Z,19.10
2017-06-09T15:34:23.124Z,19.10
2017-06-09T15:36:58.656Z,19.30
2017-06-09T15:39:31.473Z,19.50
2017-06-09T15:42:01.437Z,19.50
2017-06-09T15:44:35.166Z,19.80
2017-06-09T15:47:09.968Z,19.80
2017-06-09T15:52:30.373Z,19.80
2017-06-09T15:54:59.948Z,19.90
2017-06-09T15:57:52.456Z,19.90
2017-06-09T16:00:39.268Z,19.90
2017-06-09T16:03:09.988Z,19.90
2017-06-09T16:05:45.390Z,20.00
2017-06-09T16:08:18.284Z,19.90
2017-06-09T16:10:56.518Z,19.80
2017-06-09T16:13:29.147Z,19.30
2017-06-09T16:16:02.951Z,18.90
2017-06-09T16:18:35.277Z,18.80
2017-06-09T16:21:11.882Z,18.60
2017-06-09T16:23:44.307Z,18.50
2017-06-09T16:26:14.870Z,18.50
2017-06-09T16:28:46.712Z,18.40
2017-06-09T16:31:20.489Z,18.30
2017-06-09T16:33:52.368Z,18.30
2017-06-09T16:36:21.990Z,18.10
2017-06-09T16:38:51.999Z,17.90
2017-06-09T16:41:22.074Z,17.80
2017-06-09T16:43:52.276Z,17.80
2017-06-09T16:46:24.358Z,17.70
2017-06-09T16:48:54.742Z,17.70
2017-06-09T16:51:28.006Z,17.80
2017-06-09T16:53:57.377Z,17.80
2017-06-09T16:56:29.853Z,17.90
2017-06-09T16:58:59.535Z,17.90
2017-06-09T17:01:29.765Z,17.90
2017-06-09T17:03:59.862Z,18.00
2017-06-09T17:06:32.820Z,18.00
2017-06-09T17:09:04.538Z,18.10
2017-06-09T17:11:34.978Z,17.90
2017-06-09T17:14:05.968Z,17.90
2017-06-09T17:16:35.214Z,18.00
2017-06-09T17:19:05.509Z,18.10
2017-06-09T17:21:38.841Z,18.30
2017-06-09T17:24:12.176Z,18.30
2017-06-09T17:26:42.752Z,18.20
2017-06-09T17:29:13.367Z,18.00
2017-06-09T17:31:43.229Z,17.90
2017-06-09T17:34:12.551Z,17.70
2017-06-09T17:36:43.271Z,17.50
2017-06-09T17:39:13.841Z,17.20
2017-06-09T17:41:44.597Z,17.10
2017-06-09T17:44:17.430Z,17.10
2017-06-09T17:46:48.209Z,17.00
2017-06-09T17:49:21.295Z,16.90
2017-06-09T17:51:53.151Z,16.90
2017-06-09T17:54:25.490Z,16.80
2017-06-09T17:56:55.447Z,16.70
2017-06-09T17:59:43.068Z,16.60
2017-06-09T18:02:18.333Z,16.50
2017-06-09T18:04:49.901Z,16.30
2017-06-09T18:07:57.355Z,16.10
2017-06-09T18:10:45.331Z,16.10
2017-06-09T18:13:15.319Z,15.80
2017-06-09T18:15:50.599Z,15.70
2017-06-09T18:18:23.299Z,15.70
2017-06-09T18:21:01.895Z,15.60
2017-06-09T18:23:34.495Z,15.50
2017-06-09T18:26:06.822Z,15.40
2017-06-09T18:28:37.895Z,15.60
2017-06-09T18:31:09.274Z,15.70
2017-06-09T18:33:40.053Z,15.80
2017-06-09T18:36:12.013Z,15.90
2017-06-09T18:38:44.138Z,15.90
2017-06-09T18:41:14.574Z,15.90
2017-06-09T18:43:48.075Z,15.80
2017-06-09T18:46:18.391Z,15.80
2017-06-09T18:48:57.354Z,15.70
2017-06-09T18:51:30.894Z,15.70
2017-06-09T18:54:04.750Z,15.70
2017-06-09T18:56:44.870Z,15.70
2017-06-09T18:59:16.335Z,15.60
2017-06-09T19:01:49.509Z,15.40
2017-06-09T19:04:23.984Z,15.40
2017-06-09T19:06:57.678Z,15.30
2017-06-09T19:09:31.601Z,15.30
2017-06-09T19:12:01.219Z,15.20
2017-06-09T19:14:32.609Z,15.00
2017-06-09T19:17:08.549Z,15.10
2017-06-09T19:19:43.956Z,15.00
2017-06-09T19:22:13.640Z,14.90
2017-06-09T19:24:46.122Z,14.90
2017-06-09T19:27:16.128Z,14.80
2017-06-09T19:29:47.138Z,14.70
2017-06-09T19:32:17.729Z,14.70
2017-06-09T19:34:52.089Z,14.60
2017-06-09T19:37:21.769Z,14.50
2017-06-09T19:39:52.248Z,14.40
2017-06-09T19:42:23.792Z,14.20
2017-06-09T19:44:52.932Z,14.20
2017-06-09T19:47:22.335Z,14.20
2017-06-09T19:49:52.939Z,14.20
2017-06-09T19:52:23.099Z,14.10
2017-06-09T19:54:52.423Z,14.10
2017-06-09T19:57:21.844Z,14.00
2017-06-09T19:59:51.995Z,14.00
2017-06-09T20:02:21.923Z,14.00
2017-06-09T20:04:50.999Z,13.90
2017-06-09T20:07:20.341Z,13.90
2017-06-09T20:09:50.136Z,13.80
2017-06-09T20:12:19.408Z,13.80
2017-06-09T20:14:49.247Z,13.70
2017-06-09T20:17:18.395Z,13.70
2017-06-09T20:19:48.891Z,13.60
2017-06-09T20:22:19.544Z,13.60
2017-06-09T20:24:48.645Z,13.60
2017-06-09T20:27:18.006Z,13.70
2017-06-09T20:29:49.389Z,13.60
2017-06-09T20:32:19.313Z,13.60
2017-06-09T20:34:48.522Z,13.60
2017-06-09T20:37:17.909Z,13.60
2017-06-09T20:39:47.214Z,13.50
2017-06-09T20:42:16.383Z,13.50
2017-06-09T20:44:45.706Z,13.50
2017-06-09T20:47:20.265Z,13.50
2017-06-09T20:49:49.648Z,13.40
2017-06-09T20:52:19.182Z,13.50
2017-06-09T20:54:48.765Z,13.50
2017-06-09T20:57:18.120Z,13.50
2017-06-09T20:59:47.417Z,13.50
2017-06-09T21:02:17.148Z,13.50
2017-06-09T21:04:46.472Z,13.40
2017-06-09T21:07:15.817Z,13.30
2017-06-09T21:09:45.619Z,13.30
2017-06-09T21:12:14.754Z,13.30
2017-06-09T21:14:45.612Z,13.30
2017-06-09T21:17:17.261Z,13.30
2017-06-09T21:19:47.564Z,13.30
2017-06-09T21:22:17.633Z,13.30
2017-06-09T21:24:48.325Z,13.30
2017-06-09T21:27:18.720Z,13.30
2017-06-09T21:29:49.135Z,13.20
2017-06-09T21:32:18.614Z,13.30
2017-06-09T21:34:48.120Z,13.20
2017-06-09T21:37:17.833Z,13.20
2017-06-09T21:39:47.630Z,13.10
2017-06-09T21:42:17.292Z,13.10
2017-06-09T21:46:05.938Z,13.20
2017-06-09T21:48:34.939Z,13.10
2017-06-09T21:51:04.001Z,13.10
2017-06-09T21:53:34.015Z,13.10
2017-06-09T21:56:05.033Z,13.10
2017-06-09T21:58:34.309Z,13.20
2017-06-09T22:01:07.126Z,13.10
2017-06-09T22:03:36.517Z,13.10
2017-06-09T22:06:05.629Z,13.10
2017-06-09T22:08:34.577Z,13.00
2017-06-09T22:11:03.861Z,13.10
2017-06-09T22:13:32.911Z,13.10
2017-06-09T22:16:02.016Z,13.10
2017-06-09T22:18:31.245Z,13.00
2017-06-09T22:21:00.232Z,13.00
2017-06-09T22:23:30.906Z,13.10
2017-06-09T22:26:02.962Z,13.10
2017-06-09T22:28:32.791Z,13.00
2017-06-09T22:31:03.090Z,13.00
2017-06-09T22:33:32.149Z,13.00
2017-06-09T22:36:01.939Z,12.90
2017-06-09T22:38:31.013Z,12.90
2017-06-09T22:41:00.022Z,12.90
2017-06-09T22:43:29.323Z,12.90
2017-06-09T22:45:58.276Z,12.90
2017-06-09T22:48:27.880Z,12.90
2017-06-09T22:50:56.874Z,13.00
2017-06-09T22:53:25.953Z,13.00
2017-06-09T22:55:55.240Z,12.90
2017-06-09T22:58:24.287Z,13.00
2017-06-09T23:00:53.302Z,12.90
2017-06-09T23:03:22.292Z,12.90
2017-06-09T23:05:51.240Z,12.90
2017-06-09T23:08:21.288Z,12.90
2017-06-09T23:10:50.367Z,12.80
2017-06-09T23:13:19.407Z,12.80
2017-06-09T23:15:48.367Z,12.80
2017-06-09T23:18:17.306Z,12.80
2017-06-09T23:20:47.985Z,12.80
2017-06-09T23:23:21.095Z,12.80
2017-06-09T23:25:53.472Z,12.80
2017-06-09T23:28:22.977Z,12.80
2017-06-09T23:30:56.006Z,12.80
2017-06-09T23:33:25.083Z,12.70
2017-06-09T23:35:58.240Z,12.70
2017-06-09T23:38:27.458Z,12.70
2017-06-09T23:40:56.386Z,12.60
2017-06-09T23:43:25.787Z,12.70
2017-06-09T23:45:54.732Z,12.70
2017-06-09T23:48:23.712Z,12.60
2017-06-09T23:50:52.700Z,12.60
2017-06-09T23:53:21.652Z,12.70
2017-06-09T23:55:50.661Z,12.70
2017-06-09T23:58:19.545Z,12.70
